PWSweather.com
Personal Weather Stations
Station Observations
RAINWISE1
Rainwise Factory, Bar Harbor, ME 04609

Rainwise FactoryBar Harbor, ME 04609

Lat: 44.3897429696629, Lon: -68.2077813148499

Elevation: 29

Station Type: Rainwise MK-III

www.rainwise.com

High Low Average
Temperature 38.3°F3.5°C 26.3°F-3.2°C 32.8°F0.4°C
Dew Point 37.8°F3.2°C 22.7°F-5.2°C 31.6°F-0.2°C
Winds 13.1 mph 21.1 kmh Calm Calm 4.0 mph SW6.4 kmh SW
Wind Gusts 18.6 mph29.9 kmh -- 6.0 mph9.7 kmh
Humidity 99% 77% 95%
Pressure 29.96 in1014.6 mb 29.79 in1008.8 mb -
Precipitation 0.10 in2.5 mm - -
Hour Temp Dew Point Humidity Winds Wind Gusts Pressure Precip Precip Rate Daily Precip Total
12:04 AM 20.6°F-6.3°C 16.5°F-8.6°C 84% Calm Calm -- 29.95 in1014.2 mb 0.00 in0.0 mm 0.00 in0.0 mm 0.00 in0.0 mm
12:09 AM 20.6°F-6.3°C 16.8°F-8.4°C 85% Calm Calm -- 29.96 in1014.6 mb 0.00 in0.0 mm 0.00 in0.0 mm 0.00 in0.0 mm
12:14 AM 20.6°F-6.3°C 17.1°F-8.3°C 86% Calm Calm -- 29.97 in1014.9 mb 0.00 in0.0 mm 0.00 in0.0 mm 0.00 in0.0 mm
12:19 AM 20.8°F-6.2°C 17.3°F-8.2°C 86% Calm Calm -- 29.97 in1014.9 mb 0.00 in0.0 mm 0.00 in0.0 mm 0.00 in0.0 mm
12:24 AM 20.9°F-6.2°C 17.9°F-7.8°C 88% Calm Calm -- 29.97 in1014.9 mb 0.00 in0.0 mm 0.00 in0.0 mm 0.00 in0.0 mm
12:29 AM 21.0°F-6.1°C 18.0°F-7.8°C 88% Calm Calm -- 29.97 in1014.9 mb 0.00 in0.0 mm 0.00 in0.0 mm 0.00 in0.0 mm
12:34 AM 21.1°F-6.1°C 18.4°F-7.6°C 89% Calm Calm -- 29.97 in1014.9 mb 0.00 in0.0 mm 0.00 in0.0 mm 0.00 in0.0 mm
12:39 AM 21.0°F-6.1°C 18.0°F-7.8°C 88% Calm Calm -- 29.97 in1014.9 mb 0.00 in0.0 mm 0.00 in0.0 mm 0.00 in0.0 mm
12:44 AM 21.2°F-6.0°C 18.5°F-7.5°C 89% Calm Calm -- 29.97 in1014.9 mb 0.00 in0.0 mm 0.00 in0.0 mm 0.00 in0.0 mm
12:49 AM 22.2°F-5.4°C 19.2°F-7.1°C 88% 1.7 mph SW2.7 kmh SW 2.1 mph3.4 kmh 29.97 in1014.9 mb 0.00 in0.0 mm 0.00 in0.0 mm 0.00 in0.0 mm
12:54 AM 23.9°F-4.5°C 21.1°F-6.1°C 89% 2.6 mph SSW4.2 kmh SSW 3.5 mph5.6 kmh 29.96 in1014.6 mb 0.00 in0.0 mm 0.00 in0.0 mm 0.00 in0.0 mm
01:04 AM 26.3°F-3.2°C 22.7°F-5.2°C 86% 1.8 mph SSW2.9 kmh SSW 4.0 mph6.4 kmh 29.96 in1014.6 mb 0.00 in0.0 mm 0.00 in0.0 mm 0.00 in0.0 mm
01:09 AM 26.9°F-2.8°C 23.0°F-5.0°C 85% 2.4 mph SW3.9 kmh SW 4.2 mph6.8 kmh 29.96 in1014.6 mb 0.00 in0.0 mm 0.00 in0.0 mm 0.00 in0.0 mm
01:14 AM 27.4°F-2.6°C 22.9°F-5.1°C 83% 2.4 mph SSW3.9 kmh SSW 3.2 mph5.1 kmh 29.95 in1014.2 mb 0.00 in0.0 mm 0.00 in0.0 mm 0.00 in0.0 mm
01:19 AM 27.7°F-2.4°C 23.2°F-4.9°C 83% 1.4 mph SSW2.3 kmh SSW 2.6 mph4.2 kmh 29.95 in1014.2 mb 0.00 in0.0 mm 0.00 in0.0 mm 0.00 in0.0 mm
01:24 AM 27.8°F-2.3°C 23.6°F-4.7°C 84% 4.5 mph SSW7.2 kmh SSW 5.5 mph8.9 kmh 29.94 in1013.9 mb 0.00 in0.0 mm 0.00 in0.0 mm 0.00 in0.0 mm
01:29 AM 28.1°F-2.2°C 23.9°F-4.5°C 84% 3.9 mph SSW6.3 kmh SSW 4.9 mph7.9 kmh 29.94 in1013.9 mb 0.00 in0.0 mm 0.00 in0.0 mm 0.00 in0.0 mm
01:34 AM 28.7°F-1.8°C 24.5°F-4.2°C 84% 3.3 mph SW5.3 kmh SW 4.4 mph7.1 kmh 29.93 in1013.5 mb 0.00 in0.0 mm 0.00 in0.0 mm 0.00 in0.0 mm
01:39 AM 29.1°F-1.6°C 24.9°F-3.9°C 84% 2.7 mph SSW4.3 kmh SSW 3.7 mph6.0 kmh 29.95 in1014.2 mb 0.00 in0.0 mm 0.00 in0.0 mm 0.00 in0.0 mm
01:44 AM 29.4°F-1.4°C 24.9°F-3.9°C 83% 5.0 mph SW8.0 kmh SW 7.2 mph11.6 kmh 29.94 in1013.9 mb 0.00 in0.0 mm 0.00 in0.0 mm 0.00 in0.0 mm
01:49 AM 29.8°F-1.2°C 25.0°F-3.9°C 82% 4.9 mph SW7.9 kmh SW 6.5 mph10.5 kmh 29.94 in1013.9 mb 0.00 in0.0 mm 0.00 in0.0 mm 0.00 in0.0 mm
01:54 AM 30.3°F-0.9°C 25.2°F-3.8°C 81% 3.6 mph SW5.8 kmh SW 4.7 mph7.6 kmh 29.94 in1013.9 mb 0.00 in0.0 mm 0.00 in0.0 mm 0.00 in0.0 mm
01:59 AM 30.5°F-0.8°C 25.7°F-3.5°C 82% 4.0 mph SSW6.4 kmh SSW 6.0 mph9.7 kmh 29.94 in1013.9 mb 0.00 in0.0 mm 0.00 in0.0 mm 0.00 in0.0 mm
02:04 AM 30.7°F-0.7°C 25.3°F-3.7°C 80% 4.0 mph SW6.4 kmh SW 5.4 mph8.7 kmh 29.94 in1013.9 mb 0.00 in0.0 mm 0.00 in0.0 mm 0.00 in0.0 mm
02:09 AM 30.8°F-0.7°C 25.7°F-3.5°C 81% 4.9 mph SW7.9 kmh SW 6.5 mph10.5 kmh 29.94 in1013.9 mb 0.00 in0.0 mm 0.00 in0.0 mm 0.00 in0.0 mm
02:14 AM 31.0°F-0.6°C 25.9°F-3.4°C 81% 3.4 mph SSW5.5 kmh SSW 5.4 mph8.7 kmh 29.94 in1013.9 mb 0.00 in0.0 mm 0.00 in0.0 mm 0.00 in0.0 mm
02:19 AM 31.1°F-0.5°C 26.0°F-3.3°C 81% 3.2 mph SW5.1 kmh SW 4.2 mph6.8 kmh 29.94 in1013.9 mb 0.00 in0.0 mm 0.00 in0.0 mm 0.00 in0.0 mm
02:24 AM 31.2°F-0.4°C 26.4°F-3.1°C 82% 4.5 mph SW7.2 kmh SW 7.0 mph11.3 kmh 29.94 in1013.9 mb 0.00 in0.0 mm 0.00 in0.0 mm 0.00 in0.0 mm
02:29 AM 31.3°F-0.4°C 25.9°F-3.4°C 80% 6.0 mph SW9.7 kmh SW 10.3 mph16.6 kmh 29.94 in1013.9 mb 0.00 in0.0 mm 0.00 in0.0 mm 0.00 in0.0 mm
02:34 AM 31.5°F-0.3°C 25.8°F-3.4°C 79% 6.7 mph SW10.8 kmh SW 9.5 mph15.3 kmh 29.94 in1013.9 mb 0.00 in0.0 mm 0.00 in0.0 mm 0.00 in0.0 mm
02:39 AM 31.7°F-0.2°C 26.3°F-3.2°C 80% 3.4 mph SW5.5 kmh SW 5.7 mph9.2 kmh 29.94 in1013.9 mb 0.00 in0.0 mm 0.00 in0.0 mm 0.00 in0.0 mm
02:44 AM 31.8°F-0.1°C 26.0°F-3.3°C 79% 6.3 mph SW10.1 kmh SW 10.6 mph17.1 kmh 29.94 in1013.9 mb 0.00 in0.0 mm 0.00 in0.0 mm 0.00 in0.0 mm
02:49 AM 31.8°F-0.1°C 25.7°F-3.5°C 78% 6.5 mph SW10.5 kmh SW 8.5 mph13.7 kmh 29.94 in1013.9 mb 0.00 in0.0 mm 0.00 in0.0 mm 0.00 in0.0 mm
02:54 AM 32.0°F0.0°C 25.9°F-3.4°C 78% 7.1 mph SW11.4 kmh SW 9.8 mph15.8 kmh 29.93 in1013.5 mb 0.00 in0.0 mm 0.00 in0.0 mm 0.00 in0.0 mm
02:59 AM 32.0°F0.0°C 25.6°F-3.6°C 77% 8.4 mph SW13.5 kmh SW 13.0 mph20.9 kmh 29.94 in1013.9 mb 0.00 in0.0 mm 0.00 in0.0 mm 0.00 in0.0 mm
03:04 AM 31.8°F-0.1°C 25.4°F-3.7°C 77% 9.6 mph SW15.4 kmh SW 13.0 mph20.9 kmh 29.94 in1013.9 mb 0.00 in0.0 mm 0.00 in0.0 mm 0.00 in0.0 mm
03:09 AM 31.6°F-0.2°C 25.5°F-3.6°C 78% 8.7 mph SW14.0 kmh SW 18.0 mph29.0 kmh 29.94 in1013.9 mb 0.00 in0.0 mm 0.00 in0.0 mm 0.00 in0.0 mm
03:14 AM 31.2°F-0.4°C 25.8°F-3.4°C 80% 9.4 mph WSW15.1 kmh WSW 15.9 mph25.6 kmh 29.94 in1013.9 mb 0.00 in0.0 mm 0.00 in0.0 mm 0.00 in0.0 mm
03:19 AM 30.8°F-0.7°C 26.0°F-3.3°C 82% 5.6 mph WSW9.0 kmh WSW 12.5 mph20.1 kmh 29.94 in1013.9 mb 0.00 in0.0 mm 0.00 in0.0 mm 0.00 in0.0 mm
03:24 AM 30.5°F-0.8°C 26.0°F-3.3°C 83% 7.6 mph WSW12.2 kmh WSW 16.3 mph26.2 kmh 29.94 in1013.9 mb 0.00 in0.0 mm 0.00 in0.0 mm 0.00 in0.0 mm
03:29 AM 30.2°F-1.0°C 26.2°F-3.2°C 85% 9.8 mph WSW15.8 kmh WSW 18.6 mph29.9 kmh 29.94 in1013.9 mb 0.00 in0.0 mm 0.00 in0.0 mm 0.00 in0.0 mm
03:34 AM 29.9°F-1.2°C 26.0°F-3.3°C 85% 11.6 mph WSW18.7 kmh WSW 18.6 mph29.9 kmh 29.94 in1013.9 mb 0.00 in0.0 mm 0.00 in0.0 mm 0.00 in0.0 mm
03:39 AM 29.6°F-1.3°C 26.2°F-3.2°C 87% 9.2 mph SW14.8 kmh SW 13.5 mph21.7 kmh 29.94 in1013.9 mb 0.00 in0.0 mm 0.00 in0.0 mm 0.00 in0.0 mm
03:44 AM 29.3°F-1.5°C 26.5°F-3.1°C 89% 7.6 mph SW12.2 kmh SW 13.5 mph21.7 kmh 29.94 in1013.9 mb 0.00 in0.0 mm 0.00 in0.0 mm 0.00 in0.0 mm
03:49 AM 29.0°F-1.7°C 26.2°F-3.2°C 89% 7.1 mph WSW11.4 kmh WSW 13.0 mph20.9 kmh 29.94 in1013.9 mb 0.00 in0.0 mm 0.00 in0.0 mm 0.00 in0.0 mm
03:54 AM 28.8°F-1.8°C 26.2°F-3.2°C 90% 6.4 mph WSW10.3 kmh WSW 8.9 mph14.3 kmh 29.94 in1013.9 mb 0.00 in0.0 mm 0.00 in0.0 mm 0.00 in0.0 mm
03:59 AM 28.7°F-1.8°C 26.4°F-3.1°C 91% 5.7 mph WSW9.2 kmh WSW 8.9 mph14.3 kmh 29.93 in1013.5 mb 0.00 in0.0 mm 0.00 in0.0 mm 0.00 in0.0 mm
04:04 AM 28.6°F-1.9°C 26.3°F-3.2°C 91% 6.3 mph SW10.1 kmh SW 10.3 mph16.6 kmh 29.94 in1013.9 mb 0.00 in0.0 mm 0.00 in0.0 mm 0.00 in0.0 mm
04:09 AM 28.5°F-1.9°C 26.5°F-3.1°C 92% 6.1 mph SW9.8 kmh SW 9.5 mph15.3 kmh 29.93 in1013.5 mb 0.00 in0.0 mm 0.00 in0.0 mm 0.00 in0.0 mm
04:14 AM 28.6°F-1.9°C 26.8°F-2.9°C 93% 2.9 mph WSW4.7 kmh WSW 4.9 mph7.9 kmh 29.93 in1013.5 mb 0.00 in0.0 mm 0.00 in0.0 mm 0.00 in0.0 mm
04:19 AM 28.5°F-1.9°C 26.7°F-2.9°C 93% 8.8 mph SW14.2 kmh SW 13.5 mph21.7 kmh 29.93 in1013.5 mb 0.00 in0.0 mm 0.00 in0.0 mm 0.00 in0.0 mm
04:24 AM 28.4°F-2.0°C 26.6°F-3.0°C 93% 5.3 mph WSW8.5 kmh WSW 10.5 mph16.9 kmh 29.93 in1013.5 mb 0.00 in0.0 mm 0.00 in0.0 mm 0.00 in0.0 mm
04:29 AM 28.3°F-2.1°C 26.5°F-3.1°C 93% 6.0 mph SW9.7 kmh SW 11.4 mph18.3 kmh 29.93 in1013.5 mb 0.00 in0.0 mm 0.00 in0.0 mm 0.00 in0.0 mm
04:34 AM 28.3°F-2.1°C 26.8°F-2.9°C 94% 9.2 mph SW14.8 kmh SW 12.8 mph20.6 kmh 29.93 in1013.5 mb 0.00 in0.0 mm 0.00 in0.0 mm 0.00 in0.0 mm
04:39 AM 28.4°F-2.0°C 26.9°F-2.8°C 94% 6.1 mph SW9.8 kmh SW 9.3 mph15.0 kmh 29.93 in1013.5 mb 0.00 in0.0 mm 0.00 in0.0 mm 0.00 in0.0 mm
04:44 AM 28.5°F-1.9°C 27.3°F-2.6°C 95% 6.7 mph WSW10.8 kmh WSW 9.3 mph15.0 kmh 29.94 in1013.9 mb 0.00 in0.0 mm 0.00 in0.0 mm 0.00 in0.0 mm
04:49 AM 28.4°F-2.0°C 27.2°F-2.7°C 95% 7.4 mph SW11.9 kmh SW 9.3 mph15.0 kmh 29.94 in1013.9 mb 0.00 in0.0 mm 0.00 in0.0 mm 0.00 in0.0 mm
04:54 AM 28.5°F-1.9°C 27.3°F-2.6°C 95% 4.3 mph SW6.9 kmh SW 6.7 mph10.8 kmh 29.94 in1013.9 mb 0.00 in0.0 mm 0.00 in0.0 mm 0.00 in0.0 mm
04:59 AM 28.5°F-1.9°C 27.3°F-2.6°C 95% 4.2 mph SW6.8 kmh SW 6.0 mph9.7 kmh 29.94 in1013.9 mb 0.00 in0.0 mm 0.00 in0.0 mm 0.00 in0.0 mm
05:04 AM 28.5°F-1.9°C 27.5°F-2.5°C 96% 2.5 mph SW4.0 kmh SW 5.0 mph8.0 kmh 29.94 in1013.9 mb 0.00 in0.0 mm 0.00 in0.0 mm 0.00 in0.0 mm
05:09 AM 28.5°F-1.9°C 27.3°F-2.6°C 95% 3.7 mph WSW6.0 kmh WSW 5.0 mph8.0 kmh 29.95 in1014.2 mb 0.00 in0.0 mm 0.00 in0.0 mm 0.00 in0.0 mm
05:14 AM 28.6°F-1.9°C 27.4°F-2.6°C 95% 4.3 mph SW6.9 kmh SW 5.7 mph9.2 kmh 29.95 in1014.2 mb 0.00 in0.0 mm 0.00 in0.0 mm 0.00 in0.0 mm
05:19 AM 28.6°F-1.9°C 27.6°F-2.4°C 96% 2.4 mph SW3.9 kmh SW 4.7 mph7.6 kmh 29.95 in1014.2 mb 0.00 in0.0 mm 0.00 in0.0 mm 0.00 in0.0 mm
05:24 AM 28.5°F-1.9°C 27.5°F-2.5°C 96% 6.3 mph WSW10.1 kmh WSW 9.0 mph14.5 kmh 29.95 in1014.2 mb 0.00 in0.0 mm 0.00 in0.0 mm 0.00 in0.0 mm
05:29 AM 28.6°F-1.9°C 27.4°F-2.6°C 95% 3.9 mph W6.3 kmh W 8.1 mph13.0 kmh 29.95 in1014.2 mb 0.00 in0.0 mm 0.00 in0.0 mm 0.00 in0.0 mm
05:34 AM 28.7°F-1.8°C 27.7°F-2.4°C 96% 2.7 mph W4.3 kmh W 3.7 mph6.0 kmh 29.95 in1014.2 mb 0.00 in0.0 mm 0.00 in0.0 mm 0.00 in0.0 mm
05:39 AM 28.7°F-1.8°C 28.0°F-2.2°C 97% 6.2 mph SW10.0 kmh SW 10.3 mph16.6 kmh 29.95 in1014.2 mb 0.00 in0.0 mm 0.00 in0.0 mm 0.00 in0.0 mm
05:44 AM 28.7°F-1.8°C 28.0°F-2.2°C 97% 6.0 mph SW9.7 kmh SW 8.1 mph13.0 kmh 29.95 in1014.2 mb 0.00 in0.0 mm 0.00 in0.0 mm 0.00 in0.0 mm
05:49 AM 28.6°F-1.9°C 27.9°F-2.3°C 97% 6.2 mph SW10.0 kmh SW 10.6 mph17.1 kmh 29.94 in1013.9 mb 0.00 in0.0 mm 0.00 in0.0 mm 0.00 in0.0 mm
05:54 AM 28.6°F-1.9°C 27.9°F-2.3°C 97% 3.9 mph SW6.3 kmh SW 5.0 mph8.0 kmh 29.95 in1014.2 mb 0.00 in0.0 mm 0.00 in0.0 mm 0.00 in0.0 mm
05:59 AM 28.7°F-1.8°C 27.7°F-2.4°C 96% 5.5 mph SW8.9 kmh SW 8.1 mph13.0 kmh 29.95 in1014.2 mb 0.00 in0.0 mm 0.00 in0.0 mm 0.00 in0.0 mm
06:04 AM 28.8°F-1.8°C 28.1°F-2.2°C 97% 2.5 mph WSW4.0 kmh WSW 5.0 mph8.0 kmh 29.95 in1014.2 mb 0.00 in0.0 mm 0.00 in0.0 mm 0.00 in0.0 mm
06:09 AM 28.8°F-1.8°C 28.1°F-2.2°C 97% 1.0 mph WSW1.6 kmh WSW 3.7 mph6.0 kmh 29.95 in1014.2 mb 0.00 in0.0 mm 0.00 in0.0 mm 0.00 in0.0 mm
06:14 AM 28.8°F-1.8°C 28.1°F-2.2°C 97% 1.3 mph SW2.1 kmh SW 3.5 mph5.6 kmh 29.95 in1014.2 mb 0.00 in0.0 mm 0.00 in0.0 mm 0.00 in0.0 mm
06:19 AM 28.8°F-1.8°C 28.1°F-2.2°C 97% 1.6 mph WSW2.6 kmh WSW 4.2 mph6.8 kmh 29.95 in1014.2 mb 0.00 in0.0 mm 0.00 in0.0 mm 0.00 in0.0 mm
06:24 AM 28.7°F-1.8°C 28.0°F-2.2°C 97% 3.6 mph SW5.8 kmh SW 6.0 mph9.7 kmh 29.95 in1014.2 mb 0.00 in0.0 mm 0.00 in0.0 mm 0.00 in0.0 mm
06:29 AM 28.6°F-1.9°C 27.9°F-2.3°C 97% 1.7 mph SSW2.7 kmh SSW 4.9 mph7.9 kmh 29.95 in1014.2 mb 0.00 in0.0 mm 0.00 in0.0 mm 0.00 in0.0 mm
06:34 AM 28.5°F-1.9°C 27.8°F-2.3°C 97% 2.7 mph WSW4.3 kmh WSW 4.4 mph7.1 kmh 29.94 in1013.9 mb 0.00 in0.0 mm 0.00 in0.0 mm 0.00 in0.0 mm
06:39 AM 28.5°F-1.9°C 27.8°F-2.3°C 97% 3.6 mph WSW5.8 kmh WSW 5.5 mph8.9 kmh 29.94 in1013.9 mb 0.00 in0.0 mm 0.00 in0.0 mm 0.00 in0.0 mm
06:44 AM 28.5°F-1.9°C 27.8°F-2.3°C 97% 2.0 mph WSW3.2 kmh WSW 4.4 mph7.1 kmh 29.94 in1013.9 mb 0.00 in0.0 mm 0.00 in0.0 mm 0.00 in0.0 mm
06:49 AM 28.5°F-1.9°C 27.8°F-2.3°C 97% 3.4 mph WSW5.5 kmh WSW 4.4 mph7.1 kmh 29.94 in1013.9 mb 0.00 in0.0 mm 0.00 in0.0 mm 0.00 in0.0 mm
06:54 AM 28.5°F-1.9°C 27.8°F-2.3°C 97% 1.1 mph WNW1.8 kmh WNW 2.2 mph3.5 kmh 29.94 in1013.9 mb 0.00 in0.0 mm 0.00 in0.0 mm 0.00 in0.0 mm
06:59 AM 28.3°F-2.1°C 27.6°F-2.4°C 97% 3.8 mph SW6.1 kmh SW 5.4 mph8.7 kmh 29.94 in1013.9 mb 0.00 in0.0 mm 0.00 in0.0 mm 0.00 in0.0 mm
07:04 AM 28.3°F-2.1°C 27.3°F-2.6°C 96% 3.8 mph SSW6.1 kmh SSW 5.4 mph8.7 kmh 29.93 in1013.5 mb 0.00 in0.0 mm 0.00 in0.0 mm 0.00 in0.0 mm
07:09 AM 28.3°F-2.1°C 27.3°F-2.6°C 96% 4.2 mph SW6.8 kmh SW 6.5 mph10.5 kmh 29.94 in1013.9 mb 0.00 in0.0 mm 0.00 in0.0 mm 0.00 in0.0 mm
07:14 AM 28.4°F-2.0°C 27.4°F-2.6°C 96% 2.2 mph SSW3.5 kmh SSW 2.7 mph4.3 kmh 29.94 in1013.9 mb 0.00 in0.0 mm 0.00 in0.0 mm 0.00 in0.0 mm
07:19 AM 28.5°F-1.9°C 28.0°F-2.2°C 98% 2.5 mph SSW4.0 kmh SSW 4.2 mph6.8 kmh 29.94 in1013.9 mb 0.00 in0.0 mm 0.00 in0.0 mm 0.00 in0.0 mm
07:24 AM 28.5°F-1.9°C 27.8°F-2.3°C 97% 1.2 mph SW1.9 kmh SW 3.0 mph4.8 kmh 29.94 in1013.9 mb 0.00 in0.0 mm 0.00 in0.0 mm 0.00 in0.0 mm
07:29 AM 28.5°F-1.9°C 27.8°F-2.3°C 97% 2.7 mph WSW4.3 kmh WSW 4.4 mph7.1 kmh 29.94 in1013.9 mb 0.00 in0.0 mm 0.00 in0.0 mm 0.00 in0.0 mm
07:34 AM 28.6°F-1.9°C 27.9°F-2.3°C 97% 4.0 mph WSW6.4 kmh WSW 5.5 mph8.9 kmh 29.94 in1013.9 mb 0.00 in0.0 mm 0.00 in0.0 mm 0.00 in0.0 mm
07:39 AM 28.6°F-1.9°C 27.9°F-2.3°C 97% 1.6 mph WSW2.6 kmh WSW 3.5 mph5.6 kmh 29.95 in1014.2 mb 0.00 in0.0 mm 0.00 in0.0 mm 0.00 in0.0 mm
07:44 AM 28.6°F-1.9°C 27.9°F-2.3°C 97% 2.3 mph SW3.7 kmh SW 3.5 mph5.6 kmh 29.95 in1014.2 mb 0.00 in0.0 mm 0.00 in0.0 mm 0.00 in0.0 mm
07:49 AM 28.8°F-1.8°C 28.3°F-2.1°C 98% 1.7 mph SSW2.7 kmh SSW 2.7 mph4.3 kmh 29.95 in1014.2 mb 0.00 in0.0 mm 0.00 in0.0 mm 0.00 in0.0 mm
07:54 AM 28.8°F-1.8°C 28.3°F-2.1°C 98% 0.2 mph WSW0.3 kmh WSW 1.8 mph2.9 kmh 29.95 in1014.2 mb 0.00 in0.0 mm 0.00 in0.0 mm 0.00 in0.0 mm
07:59 AM 28.8°F-1.8°C 28.3°F-2.1°C 98% 1.7 mph SE2.7 kmh SE 2.6 mph4.2 kmh 29.95 in1014.2 mb 0.00 in0.0 mm 0.00 in0.0 mm 0.00 in0.0 mm
08:04 AM 28.8°F-1.8°C 28.3°F-2.1°C 98% 2.0 mph SSW3.2 kmh SSW 2.7 mph4.3 kmh 29.95 in1014.2 mb 0.00 in0.0 mm 0.00 in0.0 mm 0.00 in0.0 mm
08:09 AM 28.9°F-1.7°C 28.2°F-2.1°C 97% 0.9 mph WSW1.4 kmh WSW 2.1 mph3.4 kmh 29.95 in1014.2 mb 0.00 in0.0 mm 0.00 in0.0 mm 0.00 in0.0 mm
08:14 AM 29.0°F-1.7°C 28.5°F-1.9°C 98% 1.1 mph SSW1.8 kmh SSW 2.1 mph3.4 kmh 29.95 in1014.2 mb 0.00 in0.0 mm 0.00 in0.0 mm 0.00 in0.0 mm
08:19 AM 29.0°F-1.7°C 28.3°F-2.1°C 97% 2.1 mph SW3.4 kmh SW 3.0 mph4.8 kmh 29.96 in1014.6 mb 0.00 in0.0 mm 0.00 in0.0 mm 0.00 in0.0 mm
08:24 AM 29.1°F-1.6°C 28.6°F-1.9°C 98% 2.3 mph SW3.7 kmh SW 3.5 mph5.6 kmh 29.96 in1014.6 mb 0.00 in0.0 mm 0.00 in0.0 mm 0.00 in0.0 mm
08:29 AM 29.1°F-1.6°C 28.4°F-2.0°C 97% 0.7 mph WSW1.1 kmh WSW 2.1 mph3.4 kmh 29.95 in1014.2 mb 0.00 in0.0 mm 0.00 in0.0 mm 0.00 in0.0 mm
08:34 AM 29.2°F-1.6°C 28.7°F-1.8°C 98% 0.9 mph SW1.4 kmh SW 2.2 mph3.5 kmh 29.95 in1014.2 mb 0.00 in0.0 mm 0.00 in0.0 mm 0.00 in0.0 mm
08:39 AM 29.3°F-1.5°C 28.6°F-1.9°C 97% 0.3 mph W0.5 kmh W 1.6 mph2.6 kmh 29.95 in1014.2 mb 0.00 in0.0 mm 0.00 in0.0 mm 0.00 in0.0 mm
08:44 AM 29.3°F-1.5°C 28.8°F-1.8°C 98% 1.5 mph SW2.4 kmh SW 2.6 mph4.2 kmh 29.95 in1014.2 mb 0.00 in0.0 mm 0.00 in0.0 mm 0.00 in0.0 mm
08:49 AM 29.4°F-1.4°C 28.9°F-1.7°C 98% 0.7 mph WSW1.1 kmh WSW 1.6 mph2.6 kmh 29.95 in1014.2 mb 0.00 in0.0 mm 0.00 in0.0 mm 0.00 in0.0 mm
08:54 AM 29.6°F-1.3°C 29.1°F-1.6°C 98% 2.1 mph SW3.4 kmh SW 3.2 mph5.1 kmh 29.96 in1014.6 mb 0.00 in0.0 mm 0.00 in0.0 mm 0.00 in0.0 mm
08:59 AM 29.6°F-1.3°C 28.9°F-1.7°C 97% 0.2 mph WSW0.3 kmh WSW 1.8 mph2.9 kmh 29.95 in1014.2 mb 0.00 in0.0 mm 0.00 in0.0 mm 0.00 in0.0 mm
09:04 AM 29.7°F-1.3°C 29.0°F-1.7°C 97% 1.7 mph WSW2.7 kmh WSW 3.2 mph5.1 kmh 29.95 in1014.2 mb 0.00 in0.0 mm 0.00 in0.0 mm 0.00 in0.0 mm
09:09 AM 29.8°F-1.2°C 29.3°F-1.5°C 98% 1.6 mph SSW2.6 kmh SSW 3.0 mph4.8 kmh 29.95 in1014.2 mb 0.00 in0.0 mm 0.00 in0.0 mm 0.00 in0.0 mm
09:14 AM 30.0°F-1.1°C 29.3°F-1.5°C 97% 1.1 mph SW1.8 kmh SW 2.1 mph3.4 kmh 29.95 in1014.2 mb 0.00 in0.0 mm 0.00 in0.0 mm 0.00 in0.0 mm
09:19 AM 30.0°F-1.1°C 29.5°F-1.4°C 98% 1.9 mph SSW3.1 kmh SSW 2.6 mph4.2 kmh 29.95 in1014.2 mb 0.00 in0.0 mm 0.00 in0.0 mm 0.00 in0.0 mm
09:24 AM 30.1°F-1.1°C 29.4°F-1.4°C 97% 3.4 mph WSW5.5 kmh WSW 5.4 mph8.7 kmh 29.95 in1014.2 mb 0.00 in0.0 mm 0.00 in0.0 mm 0.00 in0.0 mm
09:29 AM 30.3°F-0.9°C 29.8°F-1.2°C 98% 2.1 mph SSW3.4 kmh SSW 3.0 mph4.8 kmh 29.95 in1014.2 mb 0.00 in0.0 mm 0.00 in0.0 mm 0.00 in0.0 mm
09:34 AM 30.5°F-0.8°C 30.0°F-1.1°C 98% 2.9 mph SSW4.7 kmh SSW 3.7 mph6.0 kmh 29.95 in1014.2 mb 0.00 in0.0 mm 0.00 in0.0 mm 0.00 in0.0 mm
09:39 AM 30.5°F-0.8°C 29.8°F-1.2°C 97% 1.4 mph SW2.3 kmh SW 3.2 mph5.1 kmh 29.95 in1014.2 mb 0.00 in0.0 mm 0.00 in0.0 mm 0.00 in0.0 mm
09:44 AM 30.7°F-0.7°C 30.2°F-1.0°C 98% 3.4 mph SW5.5 kmh SW 4.9 mph7.9 kmh 29.95 in1014.2 mb 0.00 in0.0 mm 0.00 in0.0 mm 0.00 in0.0 mm
09:49 AM 30.8°F-0.7°C 30.3°F-0.9°C 98% 0.4 mph SW0.6 kmh SW 3.2 mph5.1 kmh 29.95 in1014.2 mb 0.00 in0.0 mm 0.00 in0.0 mm 0.00 in0.0 mm
09:54 AM 31.0°F-0.6°C 30.5°F-0.8°C 98% 2.0 mph SW3.2 kmh SW 3.2 mph5.1 kmh 29.95 in1014.2 mb 0.00 in0.0 mm 0.00 in0.0 mm 0.00 in0.0 mm
09:59 AM 31.1°F-0.5°C 30.3°F-0.9°C 97% 2.9 mph WSW4.7 kmh WSW 4.2 mph6.8 kmh 29.95 in1014.2 mb 0.00 in0.0 mm 0.00 in0.0 mm 0.00 in0.0 mm
10:04 AM 31.1°F-0.5°C 30.3°F-0.9°C 97% 5.0 mph SW8.0 kmh SW 7.7 mph12.4 kmh 29.95 in1014.2 mb 0.00 in0.0 mm 0.00 in0.0 mm 0.00 in0.0 mm
10:09 AM 31.3°F-0.4°C 30.5°F-0.8°C 97% 0.5 mph SSW0.8 kmh SSW 1.8 mph2.9 kmh 29.95 in1014.2 mb 0.00 in0.0 mm 0.00 in0.0 mm 0.00 in0.0 mm
10:14 AM 31.3°F-0.4°C 30.8°F-0.7°C 98% 1.5 mph SW2.4 kmh SW 3.5 mph5.6 kmh 29.95 in1014.2 mb 0.00 in0.0 mm 0.00 in0.0 mm 0.00 in0.0 mm
10:19 AM 31.5°F-0.3°C 30.7°F-0.7°C 97% 2.5 mph WSW4.0 kmh WSW 5.0 mph8.0 kmh 29.95 in1014.2 mb 0.00 in0.0 mm 0.00 in0.0 mm 0.00 in0.0 mm
10:24 AM 31.6°F-0.2°C 31.1°F-0.5°C 98% 2.2 mph SW3.5 kmh SW 3.0 mph4.8 kmh 29.95 in1014.2 mb 0.00 in0.0 mm 0.00 in0.0 mm 0.00 in0.0 mm
10:29 AM 31.8°F-0.1°C 31.0°F-0.6°C 97% 2.6 mph SW4.2 kmh SW 3.5 mph5.6 kmh 29.95 in1014.2 mb 0.00 in0.0 mm 0.00 in0.0 mm 0.00 in0.0 mm
10:34 AM 31.8°F-0.1°C 31.0°F-0.6°C 97% 2.3 mph SSW3.7 kmh SSW 3.2 mph5.1 kmh 29.95 in1014.2 mb 0.00 in0.0 mm 0.00 in0.0 mm 0.00 in0.0 mm
10:39 AM 32.0°F0.0°C 31.2°F-0.4°C 97% 2.2 mph SW3.5 kmh SW 3.7 mph6.0 kmh 29.95 in1014.2 mb 0.00 in0.0 mm 0.00 in0.0 mm 0.00 in0.0 mm
10:44 AM 32.1°F0.1°C 31.3°F-0.4°C 97% 3.1 mph SW5.0 kmh SW 4.2 mph6.8 kmh 29.95 in1014.2 mb 0.00 in0.0 mm 0.00 in0.0 mm 0.00 in0.0 mm
10:49 AM 32.2°F0.1°C 31.7°F-0.2°C 98% 2.3 mph SW3.7 kmh SW 3.0 mph4.8 kmh 29.95 in1014.2 mb 0.00 in0.0 mm 0.00 in0.0 mm 0.00 in0.0 mm
10:54 AM 32.2°F0.1°C 31.7°F-0.2°C 98% 4.0 mph SW6.4 kmh SW 6.5 mph10.5 kmh 29.95 in1014.2 mb 0.00 in0.0 mm 0.00 in0.0 mm 0.00 in0.0 mm
10:59 AM 32.2°F0.1°C 31.7°F-0.2°C 98% 2.3 mph SSW3.7 kmh SSW 3.7 mph6.0 kmh 29.95 in1014.2 mb 0.00 in0.0 mm 0.00 in0.0 mm 0.00 in0.0 mm
11:04 AM 32.5°F0.3°C 31.7°F-0.2°C 97% 0.5 mph WSW0.8 kmh WSW 1.6 mph2.6 kmh 29.95 in1014.2 mb 0.00 in0.0 mm 0.00 in0.0 mm 0.00 in0.0 mm
11:09 AM 32.7°F0.4°C 31.9°F-0.1°C 97% 1.8 mph SW2.9 kmh SW 3.2 mph5.1 kmh 29.95 in1014.2 mb 0.00 in0.0 mm 0.00 in0.0 mm 0.00 in0.0 mm
11:14 AM 32.8°F0.4°C 32.0°F0.0°C 97% 2.9 mph WSW4.7 kmh WSW 4.9 mph7.9 kmh 29.95 in1014.2 mb 0.00 in0.0 mm 0.00 in0.0 mm 0.00 in0.0 mm
11:19 AM 32.9°F0.5°C 32.1°F0.1°C 97% 2.1 mph WSW3.4 kmh WSW 4.0 mph6.4 kmh 29.95 in1014.2 mb 0.00 in0.0 mm 0.00 in0.0 mm 0.00 in0.0 mm
11:24 AM 33.0°F0.6°C 32.5°F0.3°C 98% 2.4 mph WSW3.9 kmh WSW 3.7 mph6.0 kmh 29.94 in1013.9 mb 0.00 in0.0 mm 0.00 in0.0 mm 0.01 in0.3 mm
11:29 AM 33.0°F0.6°C 32.5°F0.3°C 98% 0.2 mph NNW0.3 kmh NNW 1.3 mph2.1 kmh 29.95 in1014.2 mb 0.00 in0.0 mm 0.00 in0.0 mm 0.01 in0.3 mm
11:34 AM 33.1°F0.6°C 32.6°F0.3°C 98% 1.9 mph SW3.1 kmh SW 3.0 mph4.8 kmh 29.95 in1014.2 mb 0.00 in0.0 mm 0.00 in0.0 mm 0.02 in0.5 mm
11:39 AM 33.2°F0.7°C 32.4°F0.2°C 97% 2.9 mph SSW4.7 kmh SSW 3.7 mph6.0 kmh 29.95 in1014.2 mb 0.00 in0.0 mm 0.00 in0.0 mm 0.02 in0.5 mm
11:44 AM 33.3°F0.7°C 32.5°F0.3°C 97% 3.2 mph SW5.1 kmh SW 4.7 mph7.6 kmh 29.94 in1013.9 mb 0.00 in0.0 mm 0.00 in0.0 mm 0.02 in0.5 mm
11:49 AM 33.5°F0.8°C 32.7°F0.4°C 97% 3.6 mph SW5.8 kmh SW 7.0 mph11.3 kmh 29.94 in1013.9 mb 0.00 in0.0 mm 0.00 in0.0 mm 0.03 in0.8 mm
11:54 AM 33.5°F0.8°C 32.7°F0.4°C 97% 4.9 mph SSW7.9 kmh SSW 5.5 mph8.9 kmh 29.93 in1013.5 mb 0.00 in0.0 mm 0.00 in0.0 mm 0.04 in1.0 mm
11:59 AM 33.6°F0.9°C 33.3°F0.7°C 99% 4.6 mph SSW7.4 kmh SSW 6.0 mph9.7 kmh 29.93 in1013.5 mb 0.00 in0.0 mm 0.00 in0.0 mm 0.04 in1.0 mm
12:04 PM 33.6°F0.9°C 33.3°F0.7°C 99% 3.7 mph SSW6.0 kmh SSW 5.0 mph8.0 kmh 29.93 in1013.5 mb 0.00 in0.0 mm 0.00 in0.0 mm 0.04 in1.0 mm
12:09 PM 33.7°F0.9°C 33.2°F0.7°C 98% 4.1 mph SW6.6 kmh SW 6.0 mph9.7 kmh 29.93 in1013.5 mb 0.00 in0.0 mm 0.00 in0.0 mm 0.05 in1.3 mm
12:14 PM 33.6°F0.9°C 33.1°F0.6°C 98% 3.8 mph SSW6.1 kmh SSW 4.7 mph7.6 kmh 29.93 in1013.5 mb 0.00 in0.0 mm 0.00 in0.0 mm 0.05 in1.3 mm
12:19 PM 33.7°F0.9°C 33.4°F0.8°C 99% 3.9 mph SSW6.3 kmh SSW 4.7 mph7.6 kmh 29.92 in1013.2 mb 0.00 in0.0 mm 0.00 in0.0 mm 0.05 in1.3 mm
12:24 PM 33.7°F0.9°C 33.4°F0.8°C 99% 4.7 mph SSW7.6 kmh SSW 6.0 mph9.7 kmh 29.92 in1013.2 mb 0.00 in0.0 mm 0.00 in0.0 mm 0.05 in1.3 mm
12:29 PM 33.7°F0.9°C 33.2°F0.7°C 98% 4.5 mph SSW7.2 kmh SSW 5.5 mph8.9 kmh 29.92 in1013.2 mb 0.00 in0.0 mm 0.00 in0.0 mm 0.05 in1.3 mm
12:34 PM 33.7°F0.9°C 33.4°F0.8°C 99% 5.1 mph SSW8.2 kmh SSW 7.0 mph11.3 kmh 29.91 in1012.9 mb 0.00 in0.0 mm 0.00 in0.0 mm 0.05 in1.3 mm
12:39 PM 33.7°F0.9°C 33.4°F0.8°C 99% 4.5 mph SSW7.2 kmh SSW 5.5 mph8.9 kmh 29.91 in1012.9 mb 0.00 in0.0 mm 0.00 in0.0 mm 0.05 in1.3 mm
12:44 PM 33.7°F0.9°C 33.4°F0.8°C 99% 6.2 mph SSW10.0 kmh SSW 7.7 mph12.4 kmh 29.91 in1012.9 mb 0.00 in0.0 mm 0.00 in0.0 mm 0.05 in1.3 mm
12:49 PM 33.7°F0.9°C 33.2°F0.7°C 98% 4.4 mph SSW7.1 kmh SSW 6.0 mph9.7 kmh 29.90 in1012.5 mb 0.00 in0.0 mm 0.00 in0.0 mm 0.06 in1.5 mm
12:54 PM 33.7°F0.9°C 33.4°F0.8°C 99% 5.9 mph SSW9.5 kmh SSW 7.2 mph11.6 kmh 29.90 in1012.5 mb 0.00 in0.0 mm 0.00 in0.0 mm 0.06 in1.5 mm
12:59 PM 33.7°F0.9°C 33.2°F0.7°C 98% 5.0 mph SSW8.0 kmh SSW 6.0 mph9.7 kmh 29.89 in1012.2 mb 0.00 in0.0 mm 0.00 in0.0 mm 0.06 in1.5 mm
01:04 PM 33.7°F0.9°C 33.2°F0.7°C 98% 5.0 mph SSW8.0 kmh SSW 6.2 mph10.0 kmh 29.89 in1012.2 mb 0.00 in0.0 mm 0.00 in0.0 mm 0.07 in1.8 mm
01:09 PM 33.8°F1.0°C 33.5°F0.8°C 99% 6.5 mph SSW10.5 kmh SSW 9.0 mph14.5 kmh 29.89 in1012.2 mb 0.00 in0.0 mm 0.00 in0.0 mm 0.07 in1.8 mm
01:14 PM 33.8°F1.0°C 33.5°F0.8°C 99% 5.5 mph SW8.9 kmh SW 8.5 mph13.7 kmh 29.89 in1012.2 mb 0.00 in0.0 mm 0.00 in0.0 mm 0.07 in1.8 mm
01:19 PM 33.8°F1.0°C 33.5°F0.8°C 99% 5.4 mph SW8.7 kmh SW 6.7 mph10.8 kmh 29.89 in1012.2 mb 0.00 in0.0 mm 0.00 in0.0 mm 0.07 in1.8 mm
01:24 PM 33.7°F0.9°C 33.2°F0.7°C 98% 4.7 mph SSW7.6 kmh SSW 6.7 mph10.8 kmh 29.90 in1012.5 mb 0.00 in0.0 mm 0.00 in0.0 mm 0.08 in2.0 mm
01:29 PM 33.7°F0.9°C 33.4°F0.8°C 99% 4.1 mph SSW6.6 kmh SSW 5.5 mph8.9 kmh 29.90 in1012.5 mb 0.00 in0.0 mm 0.00 in0.0 mm 0.08 in2.0 mm
01:34 PM 33.7°F0.9°C 33.4°F0.8°C 99% 5.3 mph SSW8.5 kmh SSW 7.2 mph11.6 kmh 29.89 in1012.2 mb 0.00 in0.0 mm 0.00 in0.0 mm 0.08 in2.0 mm
01:39 PM 33.7°F0.9°C 33.4°F0.8°C 99% 8.1 mph SSW13.0 kmh SSW 11.0 mph17.7 kmh 29.89 in1012.2 mb 0.00 in0.0 mm 0.00 in0.0 mm 0.08 in2.0 mm
01:44 PM 33.7°F0.9°C 33.4°F0.8°C 99% 2.9 mph SW4.7 kmh SW 4.7 mph7.6 kmh 29.88 in1011.9 mb 0.00 in0.0 mm 0.00 in0.0 mm 0.08 in2.0 mm
01:49 PM 33.7°F0.9°C 33.2°F0.7°C 98% 4.4 mph SSW7.1 kmh SSW 7.5 mph12.1 kmh 29.88 in1011.9 mb 0.00 in0.0 mm 0.00 in0.0 mm 0.08 in2.0 mm
01:54 PM 33.7°F0.9°C 33.4°F0.8°C 99% 4.3 mph SW6.9 kmh SW 6.2 mph10.0 kmh 29.88 in1011.9 mb 0.00 in0.0 mm 0.00 in0.0 mm 0.08 in2.0 mm
01:59 PM 33.7°F0.9°C 33.4°F0.8°C 99% 4.5 mph SSW7.2 kmh SSW 6.2 mph10.0 kmh 29.88 in1011.9 mb 0.00 in0.0 mm 0.00 in0.0 mm 0.08 in2.0 mm
02:04 PM 33.7°F0.9°C 33.2°F0.7°C 98% 5.3 mph SW8.5 kmh SW 7.0 mph11.3 kmh 29.87 in1011.5 mb 0.00 in0.0 mm 0.00 in0.0 mm 0.08 in2.0 mm
02:09 PM 33.7°F0.9°C 33.2°F0.7°C 98% 5.9 mph SSW9.5 kmh SSW 10.3 mph16.6 kmh 29.87 in1011.5 mb 0.00 in0.0 mm 0.00 in0.0 mm 0.08 in2.0 mm
02:14 PM 33.7°F0.9°C 33.2°F0.7°C 98% 4.6 mph SSW7.4 kmh SSW 5.7 mph9.2 kmh 29.87 in1011.5 mb 0.00 in0.0 mm 0.00 in0.0 mm 0.08 in2.0 mm
02:19 PM 33.7°F0.9°C 33.4°F0.8°C 99% 5.7 mph SSW9.2 kmh SSW 7.9 mph12.7 kmh 29.87 in1011.5 mb 0.00 in0.0 mm 0.00 in0.0 mm 0.08 in2.0 mm
02:24 PM 33.8°F1.0°C 33.5°F0.8°C 99% 7.8 mph SSW12.6 kmh SSW 10.6 mph17.1 kmh 29.87 in1011.5 mb 0.00 in0.0 mm 0.00 in0.0 mm 0.08 in2.0 mm
02:29 PM 33.8°F1.0°C 33.3°F0.7°C 98% 7.4 mph SSW11.9 kmh SSW 9.8 mph15.8 kmh 29.86 in1011.2 mb 0.00 in0.0 mm 0.00 in0.0 mm 0.09 in2.3 mm
02:34 PM 34.0°F1.1°C 33.5°F0.8°C 98% 7.8 mph SSW12.6 kmh SSW 11.9 mph19.2 kmh 29.86 in1011.2 mb 0.00 in0.0 mm 0.00 in0.0 mm 0.09 in2.3 mm
02:39 PM 34.1°F1.2°C 33.8°F1.0°C 99% 7.8 mph SW12.6 kmh SW 11.0 mph17.7 kmh 29.86 in1011.2 mb 0.00 in0.0 mm 0.00 in0.0 mm 0.09 in2.3 mm
02:44 PM 34.2°F1.2°C 33.9°F1.1°C 99% 7.8 mph SSW12.6 kmh SSW 11.6 mph18.7 kmh 29.86 in1011.2 mb 0.00 in0.0 mm 0.00 in0.0 mm 0.09 in2.3 mm
02:49 PM 34.3°F1.3°C 33.8°F1.0°C 98% 6.4 mph SSW10.3 kmh SSW 8.9 mph14.3 kmh 29.86 in1011.2 mb 0.00 in0.0 mm 0.00 in0.0 mm 0.09 in2.3 mm
02:54 PM 34.5°F1.4°C 34.2°F1.2°C 99% 5.0 mph SW8.0 kmh SW 9.5 mph15.3 kmh 29.86 in1011.2 mb 0.00 in0.0 mm 0.00 in0.0 mm 0.09 in2.3 mm
02:59 PM 34.6°F1.4°C 34.3°F1.3°C 99% 6.7 mph SW10.8 kmh SW 10.0 mph16.1 kmh 29.86 in1011.2 mb 0.00 in0.0 mm 0.00 in0.0 mm 0.09 in2.3 mm
03:04 PM 34.7°F1.5°C 34.4°F1.3°C 99% 6.7 mph SW10.8 kmh SW 11.0 mph17.7 kmh 29.86 in1011.2 mb 0.00 in0.0 mm 0.00 in0.0 mm 0.09 in2.3 mm
03:09 PM 34.7°F1.5°C 34.4°F1.3°C 99% 5.2 mph SW8.4 kmh SW 9.0 mph14.5 kmh 29.85 in1010.8 mb 0.00 in0.0 mm 0.00 in0.0 mm 0.09 in2.3 mm
03:14 PM 34.8°F1.6°C 34.5°F1.4°C 99% 3.5 mph SW5.6 kmh SW 5.4 mph8.7 kmh 29.85 in1010.8 mb 0.00 in0.0 mm 0.00 in0.0 mm 0.09 in2.3 mm
03:19 PM 34.8°F1.6°C 34.3°F1.3°C 98% 6.1 mph SSW9.8 kmh SSW 9.5 mph15.3 kmh 29.85 in1010.8 mb 0.00 in0.0 mm 0.00 in0.0 mm 0.09 in2.3 mm
03:24 PM 34.7°F1.5°C 34.2°F1.2°C 98% 6.8 mph SW10.9 kmh SW 10.0 mph16.1 kmh 29.85 in1010.8 mb 0.00 in0.0 mm 0.00 in0.0 mm 0.09 in2.3 mm
03:29 PM 34.8°F1.6°C 34.3°F1.3°C 98% 7.3 mph SSW11.7 kmh SSW 10.0 mph16.1 kmh 29.84 in1010.5 mb 0.00 in0.0 mm 0.00 in0.0 mm 0.09 in2.3 mm
03:34 PM 34.7°F1.5°C 34.4°F1.3°C 99% 4.1 mph SW6.6 kmh SW 4.9 mph7.9 kmh 29.84 in1010.5 mb 0.00 in0.0 mm 0.00 in0.0 mm 0.09 in2.3 mm
03:39 PM 34.7°F1.5°C 34.2°F1.2°C 98% 5.4 mph SW8.7 kmh SW 7.0 mph11.3 kmh 29.85 in1010.8 mb 0.00 in0.0 mm 0.00 in0.0 mm 0.09 in2.3 mm
03:44 PM 34.8°F1.6°C 34.3°F1.3°C 98% 5.2 mph SW8.4 kmh SW 7.2 mph11.6 kmh 29.85 in1010.8 mb 0.00 in0.0 mm 0.00 in0.0 mm 0.09 in2.3 mm
03:49 PM 34.7°F1.5°C 34.2°F1.2°C 98% 6.4 mph SW10.3 kmh SW 8.9 mph14.3 kmh 29.85 in1010.8 mb 0.00 in0.0 mm 0.00 in0.0 mm 0.09 in2.3 mm
03:54 PM 34.7°F1.5°C 34.2°F1.2°C 98% 4.4 mph SSW7.1 kmh SSW 7.2 mph11.6 kmh 29.85 in1010.8 mb 0.00 in0.0 mm 0.00 in0.0 mm 0.09 in2.3 mm
03:59 PM 34.7°F1.5°C 34.4°F1.3°C 99% 3.7 mph SW6.0 kmh SW 5.5 mph8.9 kmh 29.86 in1011.2 mb 0.00 in0.0 mm 0.00 in0.0 mm 0.09 in2.3 mm
04:04 PM 34.7°F1.5°C 34.4°F1.3°C 99% 3.2 mph SW5.1 kmh SW 4.2 mph6.8 kmh 29.86 in1011.2 mb 0.00 in0.0 mm 0.00 in0.0 mm 0.09 in2.3 mm
04:09 PM 34.7°F1.5°C 34.4°F1.3°C 99% 3.5 mph WSW5.6 kmh WSW 5.0 mph8.0 kmh 29.86 in1011.2 mb 0.00 in0.0 mm 0.00 in0.0 mm 0.09 in2.3 mm
04:14 PM 34.7°F1.5°C 34.4°F1.3°C 99% 3.9 mph SSW6.3 kmh SSW 5.7 mph9.2 kmh 29.86 in1011.2 mb 0.00 in0.0 mm 0.00 in0.0 mm 0.09 in2.3 mm
04:19 PM 34.7°F1.5°C 34.4°F1.3°C 99% 3.7 mph SW6.0 kmh SW 5.0 mph8.0 kmh 29.86 in1011.2 mb 0.00 in0.0 mm 0.00 in0.0 mm 0.09 in2.3 mm
04:24 PM 34.7°F1.5°C 34.4°F1.3°C 99% 3.6 mph SSW5.8 kmh SSW 4.4 mph7.1 kmh 29.86 in1011.2 mb 0.00 in0.0 mm 0.00 in0.0 mm 0.09 in2.3 mm
04:29 PM 34.7°F1.5°C 34.2°F1.2°C 98% 5.1 mph SSW8.2 kmh SSW 7.5 mph12.1 kmh 29.85 in1010.8 mb 0.00 in0.0 mm 0.00 in0.0 mm 0.09 in2.3 mm
04:34 PM 34.8°F1.6°C 34.0°F1.1°C 97% 4.7 mph SSW7.6 kmh SSW 8.4 mph13.5 kmh 29.85 in1010.8 mb 0.00 in0.0 mm 0.00 in0.0 mm 0.09 in2.3 mm
04:39 PM 34.8°F1.6°C 34.3°F1.3°C 98% 3.7 mph SSW6.0 kmh SSW 4.4 mph7.1 kmh 29.85 in1010.8 mb 0.00 in0.0 mm 0.00 in0.0 mm 0.09 in2.3 mm
04:44 PM 34.8°F1.6°C 34.0°F1.1°C 97% 7.9 mph SSW12.7 kmh SSW 10.6 mph17.1 kmh 29.85 in1010.8 mb 0.00 in0.0 mm 0.00 in0.0 mm 0.09 in2.3 mm
04:49 PM 34.8°F1.6°C 34.3°F1.3°C 98% 4.0 mph SW6.4 kmh SW 6.2 mph10.0 kmh 29.85 in1010.8 mb 0.00 in0.0 mm 0.00 in0.0 mm 0.09 in2.3 mm
04:54 PM 34.8°F1.6°C 34.0°F1.1°C 97% 4.4 mph SW7.1 kmh SW 6.5 mph10.5 kmh 29.85 in1010.8 mb 0.00 in0.0 mm 0.00 in0.0 mm 0.09 in2.3 mm
04:59 PM 35.0°F1.7°C 34.5°F1.4°C 98% 4.2 mph SSW6.8 kmh SSW 5.4 mph8.7 kmh 29.85 in1010.8 mb 0.00 in0.0 mm 0.00 in0.0 mm 0.09 in2.3 mm
05:04 PM 35.0°F1.7°C 34.2°F1.2°C 97% 5.0 mph SW8.0 kmh SW 6.2 mph10.0 kmh 29.85 in1010.8 mb 0.00 in0.0 mm 0.00 in0.0 mm 0.09 in2.3 mm
05:09 PM 35.1°F1.7°C 34.3°F1.3°C 97% 8.9 mph SSW14.3 kmh SSW 11.1 mph17.9 kmh 29.84 in1010.5 mb 0.00 in0.0 mm 0.00 in0.0 mm 0.09 in2.3 mm
05:14 PM 35.1°F1.7°C 34.3°F1.3°C 97% 8.4 mph SSW13.5 kmh SSW 13.3 mph21.4 kmh 29.84 in1010.5 mb 0.00 in0.0 mm 0.00 in0.0 mm 0.10 in2.5 mm
05:19 PM 35.2°F1.8°C 34.4°F1.3°C 97% 8.7 mph SSW14.0 kmh SSW 11.0 mph17.7 kmh 29.84 in1010.5 mb 0.00 in0.0 mm 0.00 in0.0 mm 0.10 in2.5 mm
05:24 PM 35.2°F1.8°C 34.7°F1.5°C 98% 7.8 mph SSW12.6 kmh SSW 10.5 mph16.9 kmh 29.84 in1010.5 mb 0.00 in0.0 mm 0.00 in0.0 mm 0.10 in2.5 mm
05:29 PM 35.3°F1.8°C 34.8°F1.6°C 98% 7.5 mph SSW12.1 kmh SSW 13.3 mph21.4 kmh 29.84 in1010.5 mb 0.00 in0.0 mm 0.00 in0.0 mm 0.10 in2.5 mm
05:34 PM 35.4°F1.9°C 34.6°F1.4°C 97% 8.4 mph SSW13.5 kmh SSW 11.0 mph17.7 kmh 29.84 in1010.5 mb 0.00 in0.0 mm 0.00 in0.0 mm 0.10 in2.5 mm
05:39 PM 35.5°F1.9°C 35.0°F1.7°C 98% 8.7 mph SSW14.0 kmh SSW 13.0 mph20.9 kmh 29.84 in1010.5 mb 0.00 in0.0 mm 0.00 in0.0 mm 0.10 in2.5 mm
05:44 PM 35.6°F2.0°C 34.8°F1.6°C 97% 6.0 mph SW9.7 kmh SW 7.9 mph12.7 kmh 29.84 in1010.5 mb 0.00 in0.0 mm 0.00 in0.0 mm 0.10 in2.5 mm
05:49 PM 35.7°F2.1°C 35.2°F1.8°C 98% 4.6 mph SW7.4 kmh SW 6.2 mph10.0 kmh 29.84 in1010.5 mb 0.00 in0.0 mm 0.00 in0.0 mm 0.10 in2.5 mm
05:54 PM 35.7°F2.1°C 34.9°F1.6°C 97% 5.9 mph SW9.5 kmh SW 9.5 mph15.3 kmh 29.84 in1010.5 mb 0.00 in0.0 mm 0.00 in0.0 mm 0.10 in2.5 mm
05:59 PM 35.7°F2.1°C 34.9°F1.6°C 97% 5.4 mph SW8.7 kmh SW 7.5 mph12.1 kmh 29.85 in1010.8 mb 0.00 in0.0 mm 0.00 in0.0 mm 0.10 in2.5 mm
06:04 PM 35.8°F2.1°C 34.8°F1.6°C 96% 3.8 mph SW6.1 kmh SW 5.7 mph9.2 kmh 29.85 in1010.8 mb 0.00 in0.0 mm 0.00 in0.0 mm 0.10 in2.5 mm
06:09 PM 35.9°F2.2°C 34.9°F1.6°C 96% 5.0 mph SW8.0 kmh SW 6.7 mph10.8 kmh 29.85 in1010.8 mb 0.00 in0.0 mm 0.00 in0.0 mm 0.10 in2.5 mm
06:14 PM 36.0°F2.2°C 35.0°F1.7°C 96% 3.7 mph WSW6.0 kmh WSW 5.7 mph9.2 kmh 29.85 in1010.8 mb 0.00 in0.0 mm 0.00 in0.0 mm 0.10 in2.5 mm
06:19 PM 36.0°F2.2°C 35.0°F1.7°C 96% 4.5 mph SW7.2 kmh SW 6.5 mph10.5 kmh 29.85 in1010.8 mb 0.00 in0.0 mm 0.00 in0.0 mm 0.10 in2.5 mm
06:24 PM 35.9°F2.2°C 34.9°F1.6°C 96% 4.3 mph SW6.9 kmh SW 6.7 mph10.8 kmh 29.85 in1010.8 mb 0.00 in0.0 mm 0.00 in0.0 mm 0.10 in2.5 mm
06:29 PM 35.8°F2.1°C 34.5°F1.4°C 95% 4.2 mph WSW6.8 kmh WSW 6.5 mph10.5 kmh 29.85 in1010.8 mb 0.00 in0.0 mm 0.00 in0.0 mm 0.10 in2.5 mm
06:34 PM 35.8°F2.1°C 34.5°F1.4°C 95% 4.2 mph SW6.8 kmh SW 6.5 mph10.5 kmh 29.85 in1010.8 mb 0.00 in0.0 mm 0.00 in0.0 mm 0.10 in2.5 mm
06:39 PM 35.8°F2.1°C 34.5°F1.4°C 95% 3.9 mph WSW6.3 kmh WSW 6.2 mph10.0 kmh 29.86 in1011.2 mb 0.00 in0.0 mm 0.00 in0.0 mm 0.10 in2.5 mm
06:44 PM 35.7°F2.1°C 34.7°F1.5°C 96% 2.5 mph WSW4.0 kmh WSW 5.7 mph9.2 kmh 29.86 in1011.2 mb 0.00 in0.0 mm 0.00 in0.0 mm 0.10 in2.5 mm
06:49 PM 35.7°F2.1°C 34.7°F1.5°C 96% 2.9 mph WSW4.7 kmh WSW 4.2 mph6.8 kmh 29.86 in1011.2 mb 0.00 in0.0 mm 0.00 in0.0 mm 0.10 in2.5 mm
06:54 PM 35.7°F2.1°C 34.7°F1.5°C 96% 3.2 mph SW5.1 kmh SW 5.0 mph8.0 kmh 29.86 in1011.2 mb 0.00 in0.0 mm 0.00 in0.0 mm 0.10 in2.5 mm
06:59 PM 35.6°F2.0°C 34.6°F1.4°C 96% 3.8 mph SW6.1 kmh SW 4.7 mph7.6 kmh 29.86 in1011.2 mb 0.00 in0.0 mm 0.00 in0.0 mm 0.10 in2.5 mm
07:04 PM 35.6°F2.0°C 34.8°F1.6°C 97% 4.3 mph SW6.9 kmh SW 6.7 mph10.8 kmh 29.86 in1011.2 mb 0.00 in0.0 mm 0.00 in0.0 mm 0.10 in2.5 mm
07:09 PM 35.6°F2.0°C 34.6°F1.4°C 96% 2.8 mph SW4.5 kmh SW 5.4 mph8.7 kmh 29.86 in1011.2 mb 0.00 in0.0 mm 0.00 in0.0 mm 0.10 in2.5 mm
07:14 PM 35.6°F2.0°C 34.6°F1.4°C 96% 3.2 mph SW5.1 kmh SW 6.7 mph10.8 kmh 29.86 in1011.2 mb 0.00 in0.0 mm 0.00 in0.0 mm 0.10 in2.5 mm
07:19 PM 35.6°F2.0°C 34.8°F1.6°C 97% 2.6 mph WSW4.2 kmh WSW 3.7 mph6.0 kmh 29.86 in1011.2 mb 0.00 in0.0 mm 0.00 in0.0 mm 0.10 in2.5 mm
07:24 PM 35.5°F1.9°C 34.5°F1.4°C 96% 0.8 mph WSW1.3 kmh WSW 2.6 mph4.2 kmh 29.86 in1011.2 mb 0.00 in0.0 mm 0.00 in0.0 mm 0.10 in2.5 mm
07:29 PM 35.5°F1.9°C 34.7°F1.5°C 97% 1.7 mph WSW2.7 kmh WSW 2.7 mph4.3 kmh 29.86 in1011.2 mb 0.00 in0.0 mm 0.00 in0.0 mm 0.10 in2.5 mm
07:34 PM 35.5°F1.9°C 34.7°F1.5°C 97% 1.7 mph WSW2.7 kmh WSW 3.2 mph5.1 kmh 29.86 in1011.2 mb 0.00 in0.0 mm 0.00 in0.0 mm 0.10 in2.5 mm
07:39 PM 35.5°F1.9°C 34.5°F1.4°C 96% 0.9 mph WSW1.4 kmh WSW 1.8 mph2.9 kmh 29.86 in1011.2 mb 0.00 in0.0 mm 0.00 in0.0 mm 0.10 in2.5 mm
07:44 PM 35.5°F1.9°C 34.7°F1.5°C 97% 2.7 mph WSW4.3 kmh WSW 4.2 mph6.8 kmh 29.87 in1011.5 mb 0.00 in0.0 mm 0.00 in0.0 mm 0.10 in2.5 mm
07:49 PM 35.6°F2.0°C 34.8°F1.6°C 97% 3.0 mph WSW4.8 kmh WSW 4.2 mph6.8 kmh 29.87 in1011.5 mb 0.00 in0.0 mm 0.00 in0.0 mm 0.10 in2.5 mm
07:54 PM 35.6°F2.0°C 34.8°F1.6°C 97% 2.5 mph WSW4.0 kmh WSW 4.0 mph6.4 kmh 29.87 in1011.5 mb 0.00 in0.0 mm 0.00 in0.0 mm 0.10 in2.5 mm
07:59 PM 35.6°F2.0°C 34.8°F1.6°C 97% 2.8 mph SW4.5 kmh SW 4.0 mph6.4 kmh 29.86 in1011.2 mb 0.00 in0.0 mm 0.00 in0.0 mm 0.10 in2.5 mm
08:04 PM 35.5°F1.9°C 34.7°F1.5°C 97% 2.0 mph WSW3.2 kmh WSW 4.0 mph6.4 kmh 29.86 in1011.2 mb 0.00 in0.0 mm 0.00 in0.0 mm 0.10 in2.5 mm
08:09 PM 35.4°F1.9°C 34.6°F1.4°C 97% 1.9 mph SSW3.1 kmh SSW 2.7 mph4.3 kmh 29.86 in1011.2 mb 0.00 in0.0 mm 0.00 in0.0 mm 0.10 in2.5 mm
08:14 PM 35.3°F1.8°C 34.5°F1.4°C 97% 0.9 mph SW1.4 kmh SW 2.1 mph3.4 kmh 29.86 in1011.2 mb 0.00 in0.0 mm 0.00 in0.0 mm 0.10 in2.5 mm
08:19 PM 35.3°F1.8°C 34.3°F1.3°C 96% 2.0 mph WSW3.2 kmh WSW 3.2 mph5.1 kmh 29.87 in1011.5 mb 0.00 in0.0 mm 0.00 in0.0 mm 0.10 in2.5 mm
08:24 PM 35.3°F1.8°C 34.5°F1.4°C 97% 0.6 mph SW1.0 kmh SW 2.1 mph3.4 kmh 29.87 in1011.5 mb 0.00 in0.0 mm 0.00 in0.0 mm 0.10 in2.5 mm
08:29 PM 35.2°F1.8°C 34.4°F1.3°C 97% 3.3 mph SSW5.3 kmh SSW 4.7 mph7.6 kmh 29.87 in1011.5 mb 0.00 in0.0 mm 0.00 in0.0 mm 0.10 in2.5 mm
08:34 PM 35.3°F1.8°C 34.3°F1.3°C 96% 3.4 mph S5.5 kmh S 4.7 mph7.6 kmh 29.87 in1011.5 mb 0.00 in0.0 mm 0.00 in0.0 mm 0.10 in2.5 mm
08:39 PM 35.3°F1.8°C 34.3°F1.3°C 96% 2.6 mph SW4.2 kmh SW 3.5 mph5.6 kmh 29.86 in1011.2 mb 0.00 in0.0 mm 0.00 in0.0 mm 0.10 in2.5 mm
08:44 PM 35.3°F1.8°C 34.3°F1.3°C 96% 2.3 mph SW3.7 kmh SW 3.2 mph5.1 kmh 29.87 in1011.5 mb 0.00 in0.0 mm 0.00 in0.0 mm 0.10 in2.5 mm
08:49 PM 35.5°F1.9°C 34.5°F1.4°C 96% 1.8 mph WSW2.9 kmh WSW 3.0 mph4.8 kmh 29.87 in1011.5 mb 0.00 in0.0 mm 0.00 in0.0 mm 0.10 in2.5 mm
08:54 PM 35.5°F1.9°C 34.7°F1.5°C 97% 1.3 mph SSW2.1 kmh SSW 1.8 mph2.9 kmh 29.86 in1011.2 mb 0.00 in0.0 mm 0.00 in0.0 mm 0.10 in2.5 mm
08:59 PM 35.3°F1.8°C 34.3°F1.3°C 96% 0.3 mph SSW0.5 kmh SSW 1.3 mph2.1 kmh 29.86 in1011.2 mb 0.00 in0.0 mm 0.00 in0.0 mm 0.10 in2.5 mm
09:04 PM 35.2°F1.8°C 34.4°F1.3°C 97% 1.2 mph SSW1.9 kmh SSW 1.6 mph2.6 kmh 29.86 in1011.2 mb 0.00 in0.0 mm 0.00 in0.0 mm 0.10 in2.5 mm
09:09 PM 35.1°F1.7°C 34.1°F1.2°C 96% Calm Calm -- 29.86 in1011.2 mb 0.00 in0.0 mm 0.00 in0.0 mm 0.10 in2.5 mm
09:14 PM 35.0°F1.7°C 34.2°F1.2°C 97% Calm Calm -- 29.86 in1011.2 mb 0.00 in0.0 mm 0.00 in0.0 mm 0.10 in2.5 mm
09:19 PM 34.7°F1.5°C 33.9°F1.1°C 97% Calm Calm -- 29.86 in1011.2 mb 0.00 in0.0 mm 0.00 in0.0 mm 0.10 in2.5 mm
09:24 PM 34.6°F1.4°C 33.8°F1.0°C 97% Calm Calm -- 29.86 in1011.2 mb 0.00 in0.0 mm 0.00 in0.0 mm 0.10 in2.5 mm
09:29 PM 34.6°F1.4°C 33.8°F1.0°C 97% 0.8 mph SSW1.3 kmh SSW 1.6 mph2.6 kmh 29.86 in1011.2 mb 0.00 in0.0 mm 0.00 in0.0 mm 0.10 in2.5 mm
09:34 PM 34.6°F1.4°C 33.8°F1.0°C 97% 2.2 mph SSW3.5 kmh SSW 2.7 mph4.3 kmh 29.86 in1011.2 mb 0.00 in0.0 mm 0.00 in0.0 mm 0.10 in2.5 mm
09:39 PM 34.7°F1.5°C 33.9°F1.1°C 97% 1.9 mph SSW3.1 kmh SSW 3.0 mph4.8 kmh 29.86 in1011.2 mb 0.00 in0.0 mm 0.00 in0.0 mm 0.10 in2.5 mm
09:44 PM 34.7°F1.5°C 33.9°F1.1°C 97% 1.9 mph SSW3.1 kmh SSW 2.6 mph4.2 kmh 29.85 in1010.8 mb 0.00 in0.0 mm 0.00 in0.0 mm 0.10 in2.5 mm
09:49 PM 34.7°F1.5°C 33.9°F1.1°C 97% 2.4 mph SSW3.9 kmh SSW 3.2 mph5.1 kmh 29.85 in1010.8 mb 0.00 in0.0 mm 0.00 in0.0 mm 0.10 in2.5 mm
09:54 PM 34.7°F1.5°C 33.9°F1.1°C 97% 3.8 mph SSW6.1 kmh SSW 4.4 mph7.1 kmh 29.85 in1010.8 mb 0.00 in0.0 mm 0.00 in0.0 mm 0.10 in2.5 mm
09:59 PM 35.0°F1.7°C 34.0°F1.1°C 96% 4.1 mph SSW6.6 kmh SSW 4.9 mph7.9 kmh 29.85 in1010.8 mb 0.00 in0.0 mm 0.00 in0.0 mm 0.10 in2.5 mm
10:04 PM 35.2°F1.8°C 34.2°F1.2°C 96% 3.3 mph SSW5.3 kmh SSW 4.0 mph6.4 kmh 29.85 in1010.8 mb 0.00 in0.0 mm 0.00 in0.0 mm 0.10 in2.5 mm
10:09 PM 35.3°F1.8°C 34.5°F1.4°C 97% 3.0 mph SSW4.8 kmh SSW 4.0 mph6.4 kmh 29.85 in1010.8 mb 0.00 in0.0 mm 0.00 in0.0 mm 0.10 in2.5 mm
10:14 PM 35.5°F1.9°C 34.7°F1.5°C 97% 3.1 mph SSW5.0 kmh SSW 3.7 mph6.0 kmh 29.85 in1010.8 mb 0.00 in0.0 mm 0.00 in0.0 mm 0.10 in2.5 mm
10:19 PM 35.6°F2.0°C 35.1°F1.7°C 98% 1.3 mph SSW2.1 kmh SSW 4.0 mph6.4 kmh 29.85 in1010.8 mb 0.00 in0.0 mm 0.00 in0.0 mm 0.10 in2.5 mm
10:24 PM 35.7°F2.1°C 35.2°F1.8°C 98% 1.9 mph SW3.1 kmh SW 2.6 mph4.2 kmh 29.84 in1010.5 mb 0.00 in0.0 mm 0.00 in0.0 mm 0.10 in2.5 mm
10:29 PM 35.8°F2.1°C 35.0°F1.7°C 97% Calm Calm -- 29.84 in1010.5 mb 0.00 in0.0 mm 0.00 in0.0 mm 0.10 in2.5 mm
10:34 PM 35.8°F2.1°C 35.3°F1.8°C 98% Calm Calm -- 29.84 in1010.5 mb 0.00 in0.0 mm 0.00 in0.0 mm 0.10 in2.5 mm
10:39 PM 35.7°F2.1°C 34.9°F1.6°C 97% Calm Calm -- 29.84 in1010.5 mb 0.00 in0.0 mm 0.00 in0.0 mm 0.10 in2.5 mm
10:44 PM 35.7°F2.1°C 34.9°F1.6°C 97% Calm Calm 1.1 mph1.8 kmh 29.84 in1010.5 mb 0.00 in0.0 mm 0.00 in0.0 mm 0.10 in2.5 mm
10:49 PM 35.8°F2.1°C 35.3°F1.8°C 98% 2.3 mph SSW3.7 kmh SSW 2.7 mph4.3 kmh 29.84 in1010.5 mb 0.00 in0.0 mm 0.00 in0.0 mm 0.10 in2.5 mm
10:54 PM 36.1°F2.3°C 35.6°F2.0°C 98% 2.3 mph SW3.7 kmh SW 3.7 mph6.0 kmh 29.83 in1010.2 mb 0.00 in0.0 mm 0.00 in0.0 mm 0.10 in2.5 mm
10:59 PM 36.2°F2.3°C 35.4°F1.9°C 97% 2.2 mph SSW3.5 kmh SSW 2.7 mph4.3 kmh 29.83 in1010.2 mb 0.00 in0.0 mm 0.00 in0.0 mm 0.10 in2.5 mm
11:04 PM 36.2°F2.3°C 35.7°F2.1°C 98% 2.8 mph SSW4.5 kmh SSW 4.9 mph7.9 kmh 29.83 in1010.2 mb 0.00 in0.0 mm 0.00 in0.0 mm 0.10 in2.5 mm
11:09 PM 36.3°F2.4°C 35.8°F2.1°C 98% 2.1 mph SSW3.4 kmh SSW 3.5 mph5.6 kmh 29.84 in1010.5 mb 0.00 in0.0 mm 0.00 in0.0 mm 0.10 in2.5 mm
11:14 PM 36.5°F2.5°C 35.7°F2.1°C 97% 3.2 mph SW5.1 kmh SW 4.9 mph7.9 kmh 29.83 in1010.2 mb 0.00 in0.0 mm 0.00 in0.0 mm 0.10 in2.5 mm
11:19 PM 37.0°F2.8°C 36.5°F2.5°C 98% 3.4 mph SW5.5 kmh SW 5.7 mph9.2 kmh 29.84 in1010.5 mb 0.00 in0.0 mm 0.00 in0.0 mm 0.10 in2.5 mm
11:24 PM 37.3°F2.9°C 36.8°F2.7°C 98% 3.6 mph SW5.8 kmh SW 5.7 mph9.2 kmh 29.83 in1010.2 mb 0.00 in0.0 mm 0.00 in0.0 mm 0.10 in2.5 mm
11:29 PM 37.4°F3.0°C 36.6°F2.6°C 97% 3.9 mph SSW6.3 kmh SSW 5.0 mph8.0 kmh 29.83 in1010.2 mb 0.00 in0.0 mm 0.00 in0.0 mm 0.10 in2.5 mm
11:34 PM 37.6°F3.1°C 36.8°F2.7°C 97% 3.5 mph SW5.6 kmh SW 5.0 mph8.0 kmh 29.83 in1010.2 mb 0.00 in0.0 mm 0.00 in0.0 mm 0.10 in2.5 mm
11:39 PM 37.7°F3.2°C 36.9°F2.7°C 97% 4.5 mph SSW7.2 kmh SSW 6.0 mph9.7 kmh 29.83 in1010.2 mb 0.00 in0.0 mm 0.00 in0.0 mm 0.10 in2.5 mm
11:44 PM 37.7°F3.2°C 36.9°F2.7°C 97% 3.9 mph SW6.3 kmh SW 6.2 mph10.0 kmh 29.82 in1009.8 mb 0.00 in0.0 mm 0.00 in0.0 mm 0.10 in2.5 mm
11:49 PM 37.7°F3.2°C 37.2°F2.9°C 98% 5.2 mph SSW8.4 kmh SSW 6.7 mph10.8 kmh 29.82 in1009.8 mb 0.00 in0.0 mm 0.00 in0.0 mm 0.10 in2.5 mm
11:54 PM 37.8°F3.2°C 37.0°F2.8°C 97% 4.3 mph SSW6.9 kmh SSW 6.2 mph10.0 kmh 29.82 in1009.8 mb 0.00 in0.0 mm 0.00 in0.0 mm 0.10 in2.5 mm
11:59 PM 38.0°F3.3°C 37.2°F2.9°C 97% 2.5 mph SW4.0 kmh SW 3.5 mph5.6 kmh 29.82 in1009.8 mb 0.00 in0.0 mm 0.00 in0.0 mm 0.10 in2.5 mm